sensor_id;sensor_type;location;lat;lon;timestamp;temperature;humidity
24560;DHT22;12727;49.934;8.656;2023-05-27T00:00:56;12.40;83.90
24560;DHT22;12727;49.934;8.656;2023-05-27T00:03:21;12.40;84.10
24560;DHT22;12727;49.934;8.656;2023-05-27T00:05:47;12.40;84.30
24560;DHT22;12727;49.934;8.656;2023-05-27T00:08:12;12.30;84.30
24560;DHT22;12727;49.934;8.656;2023-05-27T00:10:38;12.30;85.70
24560;DHT22;12727;49.934;8.656;2023-05-27T00:13:03;12.30;84.90
24560;DHT22;12727;49.934;8.656;2023-05-27T00:15:29;12.30;84.60
24560;DHT22;12727;49.934;8.656;2023-05-27T00:17:57;12.20;84.80
24560;DHT22;12727;49.934;8.656;2023-05-27T00:20:23;12.20;85.00
24560;DHT22;12727;49.934;8.656;2023-05-27T00:22:50;12.20;85.40
24560;DHT22;12727;49.934;8.656;2023-05-27T00:25:16;12.20;85.20
24560;DHT22;12727;49.934;8.656;2023-05-27T00:27:41;12.10;85.60
24560;DHT22;12727;49.934;8.656;2023-05-27T00:30:07;12.10;85.50
24560;DHT22;12727;49.934;8.656;2023-05-27T00:32:33;12.00;86.20
24560;DHT22;12727;49.934;8.656;2023-05-27T00:34:59;12.10;86.00
24560;DHT22;12727;49.934;8.656;2023-05-27T00:37:24;12.00;85.90
24560;DHT22;12727;49.934;8.656;2023-05-27T00:39:50;12.00;86.30
24560;DHT22;12727;49.934;8.656;2023-05-27T00:42:16;12.00;86.40
24560;DHT22;12727;49.934;8.656;2023-05-27T00:44:42;12.00;86.50
24560;DHT22;12727;49.934;8.656;2023-05-27T00:47:07;12.00;86.70
24560;DHT22;12727;49.934;8.656;2023-05-27T00:49:33;11.90;86.50
24560;DHT22;12727;49.934;8.656;2023-05-27T00:51:59;11.90;86.90
24560;DHT22;12727;49.934;8.656;2023-05-27T00:54:25;11.90;87.10
24560;DHT22;12727;49.934;8.656;2023-05-27T00:56:51;11.90;87.20
24560;DHT22;12727;49.934;8.656;2023-05-27T00:59:17;11.80;87.20
24560;DHT22;12727;49.934;8.656;2023-05-27T01:01:43;11.80;87.30
24560;DHT22;12727;49.934;8.656;2023-05-27T01:04:09;11.80;87.60
24560;DHT22;12727;49.934;8.656;2023-05-27T01:12:44;11.70;88.20
24560;DHT22;12727;49.934;8.656;2023-05-27T01:15:12;11.70;88.30
24560;DHT22;12727;49.934;8.656;2023-05-27T01:17:38;11.70;88.50
24560;DHT22;12727;49.934;8.656;2023-05-27T01:20:09;11.60;88.40
24560;DHT22;12727;49.934;8.656;2023-05-27T01:22:36;11.70;89.20
24560;DHT22;12727;49.934;8.656;2023-05-27T01:25:02;11.60;88.80
24560;DHT22;12727;49.934;8.656;2023-05-27T01:27:28;11.50;88.70
24560;DHT22;12727;49.934;8.656;2023-05-27T01:29:54;11.40;89.00
24560;DHT22;12727;49.934;8.656;2023-05-27T01:35:18;11.30;89.30
24560;DHT22;12727;49.934;8.656;2023-05-27T01:37:46;11.20;89.90
24560;DHT22;12727;49.934;8.656;2023-05-27T01:40:14;11.20;89.90
24560;DHT22;12727;49.934;8.656;2023-05-27T01:42:40;11.20;89.80
24560;DHT22;12727;49.934;8.656;2023-05-27T01:45:08;11.20;89.70
24560;DHT22;12727;49.934;8.656;2023-05-27T01:47:34;11.10;90.00
24560;DHT22;12727;49.934;8.656;2023-05-27T01:50:00;11.10;90.20
24560;DHT22;12727;49.934;8.656;2023-05-27T01:52:26;11.10;90.50
24560;DHT22;12727;49.934;8.656;2023-05-27T01:54:52;11.10;90.60
24560;DHT22;12727;49.934;8.656;2023-05-27T01:57:18;11.10;90.90
24560;DHT22;12727;49.934;8.656;2023-05-27T01:59:44;11.10;90.80
24560;DHT22;12727;49.934;8.656;2023-05-27T02:02:09;11.10;90.70
24560;DHT22;12727;49.934;8.656;2023-05-27T02:04:35;11.10;91.00
24560;DHT22;12727;49.934;8.656;2023-05-27T02:07:00;11.00;91.10
24560;DHT22;12727;49.934;8.656;2023-05-27T02:09:26;11.10;91.80
24560;DHT22;12727;49.934;8.656;2023-05-27T02:11:52;11.00;91.60
24560;DHT22;12727;49.934;8.656;2023-05-27T02:14:17;11.00;91.20
24560;DHT22;12727;49.934;8.656;2023-05-27T02:16:43;10.90;91.70
24560;DHT22;12727;49.934;8.656;2023-05-27T02:19:09;10.90;91.50
24560;DHT22;12727;49.934;8.656;2023-05-27T02:21:35;10.90;91.90
24560;DHT22;12727;49.934;8.656;2023-05-27T02:24:03;11.00;91.90
24560;DHT22;12727;49.934;8.656;2023-05-27T02:26:29;11.00;91.70
24560;DHT22;12727;49.934;8.656;2023-05-27T02:28:55;11.10;91.60
24560;DHT22;12727;49.934;8.656;2023-05-27T02:31:21;11.00;91.50
24560;DHT22;12727;49.934;8.656;2023-05-27T02:33:46;10.90;91.60
24560;DHT22;12727;49.934;8.656;2023-05-27T02:36:12;10.90;92.30
24560;DHT22;12727;49.934;8.656;2023-05-27T02:38:38;11.10;92.80
24560;DHT22;12727;49.934;8.656;2023-05-27T02:41:04;11.00;92.20
24560;DHT22;12727;49.934;8.656;2023-05-27T02:43:29;11.00;92.20
24560;DHT22;12727;49.934;8.656;2023-05-27T02:45:55;11.00;93.00
24560;DHT22;12727;49.934;8.656;2023-05-27T02:48:20;10.90;92.30
24560;DHT22;12727;49.934;8.656;2023-05-27T02:50:46;10.80;92.60
24560;DHT22;12727;49.934;8.656;2023-05-27T02:53:12;10.80;92.80
24560;DHT22;12727;49.934;8.656;2023-05-27T02:55:37;10.80;93.60
24560;DHT22;12727;49.934;8.656;2023-05-27T02:58:03;10.70;93.10
24560;DHT22;12727;49.934;8.656;2023-05-27T03:00:32;10.60;93.60
24560;DHT22;12727;49.934;8.656;2023-05-27T03:02:58;10.60;94.20
24560;DHT22;12727;49.934;8.656;2023-05-27T03:05:24;10.60;94.20
24560;DHT22;12727;49.934;8.656;2023-05-27T03:07:49;10.70;94.30
24560;DHT22;12727;49.934;8.656;2023-05-27T03:10:15;10.60;94.20
24560;DHT22;12727;49.934;8.656;2023-05-27T03:12:40;10.50;95.30
24560;DHT22;12727;49.934;8.656;2023-05-27T03:15:09;10.50;95.20
24560;DHT22;12727;49.934;8.656;2023-05-27T03:17:38;10.40;95.20
24560;DHT22;12727;49.934;8.656;2023-05-27T03:20:04;10.20;95.10
24560;DHT22;12727;49.934;8.656;2023-05-27T03:22:32;10.20;96.40
24560;DHT22;12727;49.934;8.656;2023-05-27T03:24:58;10.10;96.00
24560;DHT22;12727;49.934;8.656;2023-05-27T03:27:23;10.00;96.50
24560;DHT22;12727;49.934;8.656;2023-05-27T03:29:50;10.00;96.70
24560;DHT22;12727;49.934;8.656;2023-05-27T03:32:15;10.10;97.10
24560;DHT22;12727;49.934;8.656;2023-05-27T03:34:41;10.00;96.70
24560;DHT22;12727;49.934;8.656;2023-05-27T03:37:06;10.00;97.20
24560;DHT22;12727;49.934;8.656;2023-05-27T03:39:32;10.00;97.00
24560;DHT22;12727;49.934;8.656;2023-05-27T03:41:58;10.10;97.50
24560;DHT22;12727;49.934;8.656;2023-05-27T03:44:23;10.00;97.40
24560;DHT22;12727;49.934;8.656;2023-05-27T03:46:49;9.90;97.70
24560;DHT22;12727;49.934;8.656;2023-05-27T03:49:15;10.00;98.40
24560;DHT22;12727;49.934;8.656;2023-05-27T03:51:41;10.10;98.30
24560;DHT22;12727;49.934;8.656;2023-05-27T03:54:07;10.10;98.30
24560;DHT22;12727;49.934;8.656;2023-05-27T03:56:32;10.10;98.30
24560;DHT22;12727;49.934;8.656;2023-05-27T03:58:58;10.00;98.10
24560;DHT22;12727;49.934;8.656;2023-05-27T04:01:23;10.20;98.60
24560;DHT22;12727;49.934;8.656;2023-05-27T04:03:49;10.20;98.20
24560;DHT22;12727;49.934;8.656;2023-05-27T04:06:15;10.20;98.30
24560;DHT22;12727;49.934;8.656;2023-05-27T04:08:41;10.20;98.50
24560;DHT22;12727;49.934;8.656;2023-05-27T04:11:10;10.30;98.60
24560;DHT22;12727;49.934;8.656;2023-05-27T04:13:36;10.30;98.60
24560;DHT22;12727;49.934;8.656;2023-05-27T04:16:01;10.30;98.50
24560;DHT22;12727;49.934;8.656;2023-05-27T04:18:27;10.30;98.50
24560;DHT22;12727;49.934;8.656;2023-05-27T04:20:52;10.30;99.00
24560;DHT22;12727;49.934;8.656;2023-05-27T04:23:18;10.50;99.10
24560;DHT22;12727;49.934;8.656;2023-05-27T04:25:44;10.60;98.40
24560;DHT22;12727;49.934;8.656;2023-05-27T04:28:09;10.60;98.10
24560;DHT22;12727;49.934;8.656;2023-05-27T04:30:35;10.70;98.40
24560;DHT22;12727;49.934;8.656;2023-05-27T04:33:02;10.60;98.30
24560;DHT22;12727;49.934;8.656;2023-05-27T04:35:27;10.60;98.50
24560;DHT22;12727;49.934;8.656;2023-05-27T04:37:56;10.60;98.40
24560;DHT22;12727;49.934;8.656;2023-05-27T04:40:24;10.70;98.80
24560;DHT22;12727;49.934;8.656;2023-05-27T04:42:50;10.80;98.60
24560;DHT22;12727;49.934;8.656;2023-05-27T04:45:16;10.90;98.40
24560;DHT22;12727;49.934;8.656;2023-05-27T04:47:42;10.90;98.10
24560;DHT22;12727;49.934;8.656;2023-05-27T04:50:08;10.90;98.30
24560;DHT22;12727;49.934;8.656;2023-05-27T04:52:35;11.00;98.10
24560;DHT22;12727;49.934;8.656;2023-05-27T04:55:07;11.00;97.90
24560;DHT22;12727;49.934;8.656;2023-05-27T04:57:34;11.20;98.00
24560;DHT22;12727;49.934;8.656;2023-05-27T05:00:00;11.20;97.70
24560;DHT22;12727;49.934;8.656;2023-05-27T05:02:29;11.30;97.40
24560;DHT22;12727;49.934;8.656;2023-05-27T05:05:04;11.30;97.30
24560;DHT22;12727;49.934;8.656;2023-05-27T05:07:30;11.30;97.30
24560;DHT22;12727;49.934;8.656;2023-05-27T05:09:57;11.30;97.20
24560;DHT22;12727;49.934;8.656;2023-05-27T05:12:23;11.30;97.10
24560;DHT22;12727;49.934;8.656;2023-05-27T05:14:49;11.40;97.30
24560;DHT22;12727;49.934;8.656;2023-05-27T05:17:14;11.60;97.30
24560;DHT22;12727;49.934;8.656;2023-05-27T05:19:40;11.80;96.80
24560;DHT22;12727;49.934;8.656;2023-05-27T05:22:05;11.70;96.60
24560;DHT22;12727;49.934;8.656;2023-05-27T05:24:31;11.80;96.20
24560;DHT22;12727;49.934;8.656;2023-05-27T05:26:57;11.90;96.40
24560;DHT22;12727;49.934;8.656;2023-05-27T05:29:22;11.90;96.20
24560;DHT22;12727;49.934;8.656;2023-05-27T05:31:48;12.00;96.10
24560;DHT22;12727;49.934;8.656;2023-05-27T05:34:13;11.90;95.80
24560;DHT22;12727;49.934;8.656;2023-05-27T05:36:39;11.90;96.00
24560;DHT22;12727;49.934;8.656;2023-05-27T05:39:04;12.10;95.50
24560;DHT22;12727;49.934;8.656;2023-05-27T05:41:31;12.20;95.70
24560;DHT22;12727;49.934;8.656;2023-05-27T05:43:56;12.30;95.30
24560;DHT22;12727;49.934;8.656;2023-05-27T05:46:22;12.40;95.30
24560;DHT22;12727;49.934;8.656;2023-05-27T05:48:47;12.50;94.90
24560;DHT22;12727;49.934;8.656;2023-05-27T05:51:13;12.80;94.70
24560;DHT22;12727;49.934;8.656;2023-05-27T05:53:39;12.80;94.40
24560;DHT22;12727;49.934;8.656;2023-05-27T05:56:05;13.00;94.10
24560;DHT22;12727;49.934;8.656;2023-05-27T05:58:30;13.20;94.20
24560;DHT22;12727;49.934;8.656;2023-05-27T06:00:56;13.50;93.90
24560;DHT22;12727;49.934;8.656;2023-05-27T06:03:21;13.70;93.10
24560;DHT22;12727;49.934;8.656;2023-05-27T06:05:47;13.90;93.00
24560;DHT22;12727;49.934;8.656;2023-05-27T06:08:12;14.00;92.80
24560;DHT22;12727;49.934;8.656;2023-05-27T06:10:38;14.10;92.70
24560;DHT22;12727;49.934;8.656;2023-05-27T06:13:04;14.30;92.20
24560;DHT22;12727;49.934;8.656;2023-05-27T06:15:30;14.50;91.60
24560;DHT22;12727;49.934;8.656;2023-05-27T06:17:56;14.50;91.30
24560;DHT22;12727;49.934;8.656;2023-05-27T06:20:22;14.50;90.70
24560;DHT22;12727;49.934;8.656;2023-05-27T06:22:48;14.70;90.50
24560;DHT22;12727;49.934;8.656;2023-05-27T06:25:14;14.70;90.20
24560;DHT22;12727;49.934;8.656;2023-05-27T06:27:40;14.70;90.30
24560;DHT22;12727;49.934;8.656;2023-05-27T06:30:07;14.90;89.50
24560;DHT22;12727;49.934;8.656;2023-05-27T06:32:32;15.10;89.30
24560;DHT22;12727;49.934;8.656;2023-05-27T06:34:58;15.00;89.40
24560;DHT22;12727;49.934;8.656;2023-05-27T06:37:23;15.10;89.30
24560;DHT22;12727;49.934;8.656;2023-05-27T06:39:49;15.40;88.50
24560;DHT22;12727;49.934;8.656;2023-05-27T06:42:14;15.70;87.80
24560;DHT22;12727;49.934;8.656;2023-05-27T06:44:40;15.90;85.40
24560;DHT22;12727;49.934;8.656;2023-05-27T06:47:06;15.70;84.90
24560;DHT22;12727;49.934;8.656;2023-05-27T06:49:31;15.60;85.00
24560;DHT22;12727;49.934;8.656;2023-05-27T06:51:57;15.80;84.10
24560;DHT22;12727;49.934;8.656;2023-05-27T06:54:22;15.90;84.40
24560;DHT22;12727;49.934;8.656;2023-05-27T06:56:48;16.00;83.70
24560;DHT22;12727;49.934;8.656;2023-05-27T06:59:29;16.10;82.70
24560;DHT22;12727;49.934;8.656;2023-05-27T07:01:54;16.20;81.90
24560;DHT22;12727;49.934;8.656;2023-05-27T07:04:21;16.30;81.30
24560;DHT22;12727;49.934;8.656;2023-05-27T07:06:47;16.30;81.80
24560;DHT22;12727;49.934;8.656;2023-05-27T07:09:13;16.40;81.90
24560;DHT22;12727;49.934;8.656;2023-05-27T07:11:39;16.70;80.80
24560;DHT22;12727;49.934;8.656;2023-05-27T07:14:05;17.00;79.70
24560;DHT22;12727;49.934;8.656;2023-05-27T07:16:31;17.00;79.00
24560;DHT22;12727;49.934;8.656;2023-05-27T07:18:57;17.10;78.80
24560;DHT22;12727;49.934;8.656;2023-05-27T07:21:22;16.90;78.30
24560;DHT22;12727;49.934;8.656;2023-05-27T07:23:48;16.90;78.00
24560;DHT22;12727;49.934;8.656;2023-05-27T07:26:14;17.00;79.00
24560;DHT22;12727;49.934;8.656;2023-05-27T07:28:39;17.10;76.80
24560;DHT22;12727;49.934;8.656;2023-05-27T07:31:05;17.30;78.30
24560;DHT22;12727;49.934;8.656;2023-05-27T07:33:30;17.40;75.90
24560;DHT22;12727;49.934;8.656;2023-05-27T07:35:56;17.50;77.40
24560;DHT22;12727;49.934;8.656;2023-05-27T07:38:21;17.80;76.90
24560;DHT22;12727;49.934;8.656;2023-05-27T07:40:47;17.90;75.60
24560;DHT22;12727;49.934;8.656;2023-05-27T07:43:13;17.80;75.50
24560;DHT22;12727;49.934;8.656;2023-05-27T07:45:38;18.20;75.70
24560;DHT22;12727;49.934;8.656;2023-05-27T07:48:04;18.40;73.90
24560;DHT22;12727;49.934;8.656;2023-05-27T07:50:30;18.40;74.20
24560;DHT22;12727;49.934;8.656;2023-05-27T07:52:55;18.50;72.90
24560;DHT22;12727;49.934;8.656;2023-05-27T07:55:21;18.50;73.20
24560;DHT22;12727;49.934;8.656;2023-05-27T07:57:47;18.60;73.10
24560;DHT22;12727;49.934;8.656;2023-05-27T08:00:13;18.70;73.00
24560;DHT22;12727;49.934;8.656;2023-05-27T08:02:38;19.00;72.20
24560;DHT22;12727;49.934;8.656;2023-05-27T08:05:04;18.90;71.20
24560;DHT22;12727;49.934;8.656;2023-05-27T08:07:30;18.60;72.20
24560;DHT22;12727;49.934;8.656;2023-05-27T08:09:56;18.60;71.00
24560;DHT22;12727;49.934;8.656;2023-05-27T08:12:22;18.80;71.40
24560;DHT22;12727;49.934;8.656;2023-05-27T08:14:48;19.30;70.90
24560;DHT22;12727;49.934;8.656;2023-05-27T08:17:14;19.40;68.30
24560;DHT22;12727;49.934;8.656;2023-05-27T08:19:40;19.60;68.60
24560;DHT22;12727;49.934;8.656;2023-05-27T08:22:05;19.60;68.40
24560;DHT22;12727;49.934;8.656;2023-05-27T08:24:34;20.00;69.10
24560;DHT22;12727;49.934;8.656;2023-05-27T08:27:00;20.50;67.40
24560;DHT22;12727;49.934;8.656;2023-05-27T08:29:26;20.40;66.40
24560;DHT22;12727;49.934;8.656;2023-05-27T08:31:53;20.30;65.60
24560;DHT22;12727;49.934;8.656;2023-05-27T08:34:19;20.20;66.70
24560;DHT22;12727;49.934;8.656;2023-05-27T08:36:44;20.00;66.00
24560;DHT22;12727;49.934;8.656;2023-05-27T08:39:10;19.90;67.10
24560;DHT22;12727;49.934;8.656;2023-05-27T08:41:36;19.90;66.60
24560;DHT22;12727;49.934;8.656;2023-05-27T08:44:02;20.30;67.40
24560;DHT22;12727;49.934;8.656;2023-05-27T08:46:27;20.80;65.50
24560;DHT22;12727;49.934;8.656;2023-05-27T08:48:53;21.00;65.10
24560;DHT22;12727;49.934;8.656;2023-05-27T08:51:21;21.10;62.90
24560;DHT22;12727;49.934;8.656;2023-05-27T08:53:48;21.10;64.30
24560;DHT22;12727;49.934;8.656;2023-05-27T08:56:15;21.60;63.80
24560;DHT22;12727;49.934;8.656;2023-05-27T08:58:43;21.80;63.60
24560;DHT22;12727;49.934;8.656;2023-05-27T09:01:09;22.10;61.90
24560;DHT22;12727;49.934;8.656;2023-05-27T09:03:35;21.90;63.20
24560;DHT22;12727;49.934;8.656;2023-05-27T09:06:02;22.30;62.90
24560;DHT22;12727;49.934;8.656;2023-05-27T09:08:30;22.30;60.80
24560;DHT22;12727;49.934;8.656;2023-05-27T09:10:55;22.70;60.70
24560;DHT22;12727;49.934;8.656;2023-05-27T09:13:29;23.00;58.70
24560;DHT22;12727;49.934;8.656;2023-05-27T09:16:02;22.70;58.90
24560;DHT22;12727;49.934;8.656;2023-05-27T09:18:33;22.70;58.90
24560;DHT22;12727;49.934;8.656;2023-05-27T09:20:59;23.30;59.40
24560;DHT22;12727;49.934;8.656;2023-05-27T09:23:25;23.00;58.90
24560;DHT22;12727;49.934;8.656;2023-05-27T09:25:51;23.20;58.70
24560;DHT22;12727;49.934;8.656;2023-05-27T09:28:24;23.10;57.80
24560;DHT22;12727;49.934;8.656;2023-05-27T09:31:04;23.30;57.50
24560;DHT22;12727;49.934;8.656;2023-05-27T09:33:32;23.30;57.20
24560;DHT22;12727;49.934;8.656;2023-05-27T09:35:59;23.30;57.80
24560;DHT22;12727;49.934;8.656;2023-05-27T09:38:28;23.80;57.00
24560;DHT22;12727;49.934;8.656;2023-05-27T09:40:54;23.90;55.20
24560;DHT22;12727;49.934;8.656;2023-05-27T09:43:20;23.70;54.70
24560;DHT22;12727;49.934;8.656;2023-05-27T09:45:45;23.60;53.70
24560;DHT22;12727;49.934;8.656;2023-05-27T09:48:12;23.50;52.60
24560;DHT22;12727;49.934;8.656;2023-05-27T09:50:39;23.70;53.30
24560;DHT22;12727;49.934;8.656;2023-05-27T09:53:06;23.70;52.50
24560;DHT22;12727;49.934;8.656;2023-05-27T09:55:33;23.80;52.50
24560;DHT22;12727;49.934;8.656;2023-05-27T09:57:59;24.00;50.80
24560;DHT22;12727;49.934;8.656;2023-05-27T10:00:26;24.30;50.80
24560;DHT22;12727;49.934;8.656;2023-05-27T10:02:52;24.30;49.50
24560;DHT22;12727;49.934;8.656;2023-05-27T10:05:18;24.30;50.10
24560;DHT22;12727;49.934;8.656;2023-05-27T10:07:46;24.10;49.40
24560;DHT22;12727;49.934;8.656;2023-05-27T10:10:17;23.90;50.60
24560;DHT22;12727;49.934;8.656;2023-05-27T10:12:44;24.00;50.80
24560;DHT22;12727;49.934;8.656;2023-05-27T10:15:30;24.20;50.60
24560;DHT22;12727;49.934;8.656;2023-05-27T10:20:33;24.20;49.90
24560;DHT22;12727;49.934;8.656;2023-05-27T10:23:21;23.60;51.10
24560;DHT22;12727;49.934;8.656;2023-05-27T10:25:51;23.40;50.50
24560;DHT22;12727;49.934;8.656;2023-05-27T10:28:43;23.50;51.40
24560;DHT22;12727;49.934;8.656;2023-05-27T10:31:11;24.40;50.70
24560;DHT22;12727;49.934;8.656;2023-05-27T10:33:43;24.20;50.20
24560;DHT22;12727;49.934;8.656;2023-05-27T10:36:13;24.50;50.20
24560;DHT22;12727;49.934;8.656;2023-05-27T10:38:41;24.90;49.10
24560;DHT22;12727;49.934;8.656;2023-05-27T10:41:07;25.10;48.20
24560;DHT22;12727;49.934;8.656;2023-05-27T10:43:34;25.00;48.80
24560;DHT22;12727;49.934;8.656;2023-05-27T10:46:07;24.70;48.30
24560;DHT22;12727;49.934;8.656;2023-05-27T10:48:33;24.10;49.00
24560;DHT22;12727;49.934;8.656;2023-05-27T10:51:00;24.40;49.50
24560;DHT22;12727;49.934;8.656;2023-05-27T10:53:29;24.20;50.50
24560;DHT22;12727;49.934;8.656;2023-05-27T10:55:58;24.10;51.10
24560;DHT22;12727;49.934;8.656;2023-05-27T10:58:24;24.40;50.30
24560;DHT22;12727;49.934;8.656;2023-05-27T11:00:51;24.30;50.20
24560;DHT22;12727;49.934;8.656;2023-05-27T11:03:22;24.00;49.70
24560;DHT22;12727;49.934;8.656;2023-05-27T11:06:00;24.20;49.20
24560;DHT22;12727;49.934;8.656;2023-05-27T11:08:25;24.70;48.30
24560;DHT22;12727;49.934;8.656;2023-05-27T11:11:06;24.50;48.10
24560;DHT22;12727;49.934;8.656;2023-05-27T11:13:45;24.10;47.50
24560;DHT22;12727;49.934;8.656;2023-05-27T11:16:12;24.20;48.50
24560;DHT22;12727;49.934;8.656;2023-05-27T11:18:42;24.30;47.90
24560;DHT22;12727;49.934;8.656;2023-05-27T11:21:09;24.20;49.30
24560;DHT22;12727;49.934;8.656;2023-05-27T11:26:01;23.20;50.20
24560;DHT22;12727;49.934;8.656;2023-05-27T11:28:27;22.90;49.90
24560;DHT22;12727;49.934;8.656;2023-05-27T11:31:01;22.90;49.70
24560;DHT22;12727;49.934;8.656;2023-05-27T11:33:31;22.50;49.10
24560;DHT22;12727;49.934;8.656;2023-05-27T11:36:05;22.50;50.30
24560;DHT22;12727;49.934;8.656;2023-05-27T11:38:31;22.60;50.40
24560;DHT22;12727;49.934;8.656;2023-05-27T11:41:07;22.70;50.20
24560;DHT22;12727;49.934;8.656;2023-05-27T11:43:33;22.80;50.60
24560;DHT22;12727;49.934;8.656;2023-05-27T11:46:04;22.60;50.00
24560;DHT22;12727;49.934;8.656;2023-05-27T11:48:30;22.50;49.70
24560;DHT22;12727;49.934;8.656;2023-05-27T11:55:59;22.70;51.00
24560;DHT22;12727;49.934;8.656;2023-05-27T11:58:24;22.70;51.70
24560;DHT22;12727;49.934;8.656;2023-05-27T12:00:50;22.70;50.90
24560;DHT22;12727;49.934;8.656;2023-05-27T12:03:16;22.70;51.50
24560;DHT22;12727;49.934;8.656;2023-05-27T12:05:42;22.70;52.10
24560;DHT22;12727;49.934;8.656;2023-05-27T12:08:07;22.40;51.30
24560;DHT22;12727;49.934;8.656;2023-05-27T12:10:33;22.50;50.80
24560;DHT22;12727;49.934;8.656;2023-05-27T12:13:05;22.60;50.70
24560;DHT22;12727;49.934;8.656;2023-05-27T12:15:31;22.70;49.80
24560;DHT22;12727;49.934;8.656;2023-05-27T12:17:57;22.60;50.60
24560;DHT22;12727;49.934;8.656;2023-05-27T12:20:23;22.70;49.90
24560;DHT22;12727;49.934;8.656;2023-05-27T12:22:53;22.80;50.00
24560;DHT22;12727;49.934;8.656;2023-05-27T12:25:19;22.60;49.20
24560;DHT22;12727;49.934;8.656;2023-05-27T12:27:45;22.70;49.20
24560;DHT22;12727;49.934;8.656;2023-05-27T12:30:11;22.60;50.30
24560;DHT22;12727;49.934;8.656;2023-05-27T12:32:38;22.50;49.20
24560;DHT22;12727;49.934;8.656;2023-05-27T12:35:04;22.60;50.00
24560;DHT22;12727;49.934;8.656;2023-05-27T12:37:30;22.50;48.80
24560;DHT22;12727;49.934;8.656;2023-05-27T12:39:55;22.60;48.70
24560;DHT22;12727;49.934;8.656;2023-05-27T12:42:21;22.90;46.50
24560;DHT22;12727;49.934;8.656;2023-05-27T12:44:48;22.80;45.90
24560;DHT22;12727;49.934;8.656;2023-05-27T12:47:13;22.70;46.10
24560;DHT22;12727;49.934;8.656;2023-05-27T12:49:39;22.70;46.80
24560;DHT22;12727;49.934;8.656;2023-05-27T12:52:04;22.80;46.90
24560;DHT22;12727;49.934;8.656;2023-05-27T12:54:30;22.90;46.70
24560;DHT22;12727;49.934;8.656;2023-05-27T12:56:56;23.10;46.80
24560;DHT22;12727;49.934;8.656;2023-05-27T12:59:21;23.10;46.20
24560;DHT22;12727;49.934;8.656;2023-05-27T13:01:47;23.20;46.10
24560;DHT22;12727;49.934;8.656;2023-05-27T13:04:12;23.30;46.10
24560;DHT22;12727;49.934;8.656;2023-05-27T13:06:38;23.10;45.20
24560;DHT22;12727;49.934;8.656;2023-05-27T13:09:04;23.10;45.40
24560;DHT22;12727;49.934;8.656;2023-05-27T13:11:30;23.00;46.10
24560;DHT22;12727;49.934;8.656;2023-05-27T13:13:56;22.90;46.60
24560;DHT22;12727;49.934;8.656;2023-05-27T13:16:21;22.80;46.20
24560;DHT22;12727;49.934;8.656;2023-05-27T13:18:47;23.00;45.10
24560;DHT22;12727;49.934;8.656;2023-05-27T13:21:13;23.10;46.70
24560;DHT22;12727;49.934;8.656;2023-05-27T13:23:38;23.00;45.50
24560;DHT22;12727;49.934;8.656;2023-05-27T13:26:04;23.00;44.90
24560;DHT22;12727;49.934;8.656;2023-05-27T13:28:30;23.00;44.10
24560;DHT22;12727;49.934;8.656;2023-05-27T13:30:56;23.00;44.40
24560;DHT22;12727;49.934;8.656;2023-05-27T13:33:22;23.20;44.30
24560;DHT22;12727;49.934;8.656;2023-05-27T13:35:48;23.20;43.80
24560;DHT22;12727;49.934;8.656;2023-05-27T13:38:14;23.20;44.00
24560;DHT22;12727;49.934;8.656;2023-05-27T13:40:41;23.10;44.20
24560;DHT22;12727;49.934;8.656;2023-05-27T13:43:07;23.10;43.60
24560;DHT22;12727;49.934;8.656;2023-05-27T13:45:33;23.20;44.10
24560;DHT22;12727;49.934;8.656;2023-05-27T13:47:58;23.20;44.00
24560;DHT22;12727;49.934;8.656;2023-05-27T13:50:24;23.30;44.60
24560;DHT22;12727;49.934;8.656;2023-05-27T13:52:50;23.40;44.80
24560;DHT22;12727;49.934;8.656;2023-05-27T13:55:15;23.30;43.50
24560;DHT22;12727;49.934;8.656;2023-05-27T13:57:41;23.20;43.70
24560;DHT22;12727;49.934;8.656;2023-05-27T14:00:09;23.20;43.30
24560;DHT22;12727;49.934;8.656;2023-05-27T14:02:34;23.20;43.70
24560;DHT22;12727;49.934;8.656;2023-05-27T14:05:00;23.40;44.20
24560;DHT22;12727;49.934;8.656;2023-05-27T14:07:28;23.30;44.40
24560;DHT22;12727;49.934;8.656;2023-05-27T14:09:53;23.50;44.80
24560;DHT22;12727;49.934;8.656;2023-05-27T14:12:19;23.50;44.90
24560;DHT22;12727;49.934;8.656;2023-05-27T14:14:45;23.40;43.60
24560;DHT22;12727;49.934;8.656;2023-05-27T14:17:10;23.20;42.90
24560;DHT22;12727;49.934;8.656;2023-05-27T14:19:36;23.20;44.00
24560;DHT22;12727;49.934;8.656;2023-05-27T14:22:02;23.20;44.20
24560;DHT22;12727;49.934;8.656;2023-05-27T14:24:27;23.30;44.80
24560;DHT22;12727;49.934;8.656;2023-05-27T14:26:53;23.40;45.10
24560;DHT22;12727;49.934;8.656;2023-05-27T14:29:18;23.30;44.90
24560;DHT22;12727;49.934;8.656;2023-05-27T14:31:44;23.30;44.80
24560;DHT22;12727;49.934;8.656;2023-05-27T14:34:09;23.20;44.90
24560;DHT22;12727;49.934;8.656;2023-05-27T14:36:35;23.30;43.10
24560;DHT22;12727;49.934;8.656;2023-05-27T14:39:02;23.50;42.60
24560;DHT22;12727;49.934;8.656;2023-05-27T14:41:31;23.30;43.20
24560;DHT22;12727;49.934;8.656;2023-05-27T14:43:57;23.30;43.70
24560;DHT22;12727;49.934;8.656;2023-05-27T14:46:22;23.40;44.10
24560;DHT22;12727;49.934;8.656;2023-05-27T14:48:48;23.50;44.10
24560;DHT22;12727;49.934;8.656;2023-05-27T14:51:14;23.50;43.60
24560;DHT22;12727;49.934;8.656;2023-05-27T14:53:39;23.50;43.70
24560;DHT22;12727;49.934;8.656;2023-05-27T14:56:05;23.40;44.40
24560;DHT22;12727;49.934;8.656;2023-05-27T14:58:31;23.40;44.00
24560;DHT22;12727;49.934;8.656;2023-05-27T15:00:56;23.40;44.60
24560;DHT22;12727;49.934;8.656;2023-05-27T15:03:22;23.40;44.20
24560;DHT22;12727;49.934;8.656;2023-05-27T15:05:47;23.40;44.80
24560;DHT22;12727;49.934;8.656;2023-05-27T15:08:13;23.50;45.20
24560;DHT22;12727;49.934;8.656;2023-05-27T15:10:42;23.50;44.70
24560;DHT22;12727;49.934;8.656;2023-05-27T15:13:08;23.50;45.20
24560;DHT22;12727;49.934;8.656;2023-05-27T15:15:34;23.50;45.10
24560;DHT22;12727;49.934;8.656;2023-05-27T15:18:00;23.40;44.60
24560;DHT22;12727;49.934;8.656;2023-05-27T15:20:26;23.60;45.70
24560;DHT22;12727;49.934;8.656;2023-05-27T15:22:52;23.50;44.50
24560;DHT22;12727;49.934;8.656;2023-05-27T15:25:17;23.50;45.10
24560;DHT22;12727;49.934;8.656;2023-05-27T15:27:43;23.50;45.00
24560;DHT22;12727;49.934;8.656;2023-05-27T15:30:09;23.60;44.70
24560;DHT22;12727;49.934;8.656;2023-05-27T15:32:35;23.60;44.90
24560;DHT22;12727;49.934;8.656;2023-05-27T15:35:01;23.70;44.10
24560;DHT22;12727;49.934;8.656;2023-05-27T15:37:28;23.60;42.90
24560;DHT22;12727;49.934;8.656;2023-05-27T15:39:54;23.60;43.20
24560;DHT22;12727;49.934;8.656;2023-05-27T15:42:20;23.60;44.10
24560;DHT22;12727;49.934;8.656;2023-05-27T15:44:45;23.70;44.00